Time;durP1;ratioP1;P1;durP2;ratioP2;P2;SDS_P1;SDS_P2;PMS_P1;PMS_P2;Temp;Humidity;BMP_temperature;BMP_pressure;BME280_temperature;BME280_humidity;BME280_pressure;Samples;Min_cycle;Max_cycle;Signal;HPM_P1;HPM_P2
2023/04/19 00:01:54;;;;;;;14.93;13.47;;;;;;;;;;5056372;28;20485;-76
2023/04/19 00:04:30;;;;;;;13.13;11.90;;;;;;;;;;5053705;28;20477;-75
2023/04/19 00:07:11;;;;;;;13.40;12.10;;;;;;;;;;5054305;28;20469;-75
2023/04/19 00:12:29;;;;;;;13.90;12.63;;;;;;;;;;5052057;28;20441;-75
2023/04/19 00:15:07;;;;;;;14.73;13.23;;;;;;;;;;5053981;28;20951;-75
2023/04/19 00:17:50;;;;;;;14.30;12.90;;;;;;;;;;5054090;28;20485;-75
2023/04/19 00:20:21;;;;;;;14.80;13.20;;;;;;;;;;5053691;28;20490;-75
2023/04/19 00:22:57;;;;;;;14.90;13.33;;;;;;;;;;5053672;28;20512;-76
2023/04/19 00:25:25;;;;;;;14.00;12.53;;;;;;;;;;5053670;28;20544;-75
2023/04/19 00:27:56;;;;;;;15.97;12.50;;;;;;;;;;5053693;28;20561;-75
2023/04/19 00:30:26;;;;;;;14.13;12.80;;;;;;;;;;5060605;28;20531;-76
2023/04/19 00:32:55;;;;;;;13.67;12.37;;;;;;;;;;5061517;28;20457;-77
2023/04/19 00:35:27;;;;;;;14.40;13.10;;;;;;;;;;5062999;28;20517;-76
2023/04/19 00:37:58;;;;;;;13.00;11.70;;;;;;;;;;5062891;28;20527;-75
2023/04/19 00:40:28;;;;;;;14.33;12.93;;;;;;;;;;5063092;28;20472;-76
2023/04/19 00:43:03;;;;;;;13.17;11.87;;;;;;;;;;5062639;28;20495;-77
2023/04/19 00:45:36;;;;;;;14.17;12.37;;;;;;;;;;5057712;28;20453;-76
2023/04/19 00:48:04;;;;;;;15.53;14.03;;;;;;;;;;5057482;28;20504;-75
2023/04/19 00:50:37;;;;;;;14.87;13.30;;;;;;;;;;5058200;28;20512;-76
2023/04/19 00:53:07;;;;;;;15.70;14.10;;;;;;;;;;5057913;28;20495;-76
2023/04/19 00:55:39;;;;;;;14.17;12.77;;;;;;;;;;5062065;28;20450;-76
2023/04/19 00:58:10;;;;;;;14.40;12.87;;;;;;;;;;5060133;28;20496;-75
2023/04/19 01:00:41;;;;;;;16.53;13.27;;;;;;;;;;5061334;28;20507;-76
2023/04/19 01:03:09;;;;;;;14.57;13.13;;;;;;;;;;5062104;28;20584;-77
2023/04/19 01:05:38;;;;;;;15.73;13.37;;;;;;;;;;5061819;28;20536;-76
2023/04/19 01:08:13;;;;;;;15.60;14.10;;;;;;;;;;5062739;28;20461;-76
2023/04/19 01:10:47;;;;;;;15.57;13.93;;;;;;;;;;5063765;28;20444;-77
2023/04/19 01:13:17;;;;;;;17.17;14.33;;;;;;;;;;5062976;28;20638;-77
2023/04/19 01:15:54;;;;;;;16.00;14.40;;;;;;;;;;5061912;28;20525;-75
2023/04/19 01:18:24;;;;;;;14.57;13.07;;;;;;;;;;5061247;28;20489;-75
2023/04/19 01:21:05;;;;;;;15.90;14.30;;;;;;;;;;5060441;28;20536;-76
2023/04/19 01:23:35;;;;;;;14.90;13.40;;;;;;;;;;5060392;28;20477;-75
2023/04/19 01:26:05;;;;;;;15.27;13.77;;;;;;;;;;5060968;28;20521;-76
2023/04/19 01:28:38;;;;;;;17.00;14.47;;;;;;;;;;5064237;28;20526;-75
2023/04/19 01:31:11;;;;;;;14.73;13.33;;;;;;;;;;5073624;28;20459;-77
2023/04/19 01:33:45;;;;;;;15.73;14.03;;;;;;;;;;5072860;28;20509;-76
2023/04/19 01:36:16;;;;;;;16.60;14.33;;;;;;;;;;5065329;28;20535;-76
2023/04/19 01:38:53;;;;;;;17.47;15.50;;;;;;;;;;5062921;28;20468;-76
2023/04/19 01:41:25;;;;;;;15.20;13.60;;;;;;;;;;5061141;28;20445;-76
2023/04/19 01:43:55;;;;;;;16.50;14.67;;;;;;;;;;5060477;28;20483;-75
2023/04/19 01:46:26;;;;;;;15.40;13.87;;;;;;;;;;5060721;28;20816;-75
2023/04/19 01:48:54;;;;;;;16.90;15.10;;;;;;;;;;5061745;28;20465;-77
2023/04/19 01:51:25;;;;;;;16.43;14.73;;;;;;;;;;5061909;28;20449;-75
2023/04/19 01:54:01;;;;;;;14.90;13.50;;;;;;;;;;5063562;28;20450;-75
2023/04/19 01:56:36;;;;;;;17.97;15.07;;;;;;;;;;5063690;28;20467;-77
2023/04/19 01:59:07;;;;;;;17.50;14.97;;;;;;;;;;5063825;28;20456;-75
2023/04/19 02:01:38;;;;;;;17.53;14.77;;;;;;;;;;5064482;28;20464;-76
2023/04/19 02:04:16;;;;;;;16.07;14.40;;;;;;;;;;5063484;28;20473;-76
2023/04/19 02:07:18;;;;;;;16.50;14.80;;;;;;;;;;5062963;28;20764;-75
2023/04/19 02:12:47;;;;;;;17.50;15.73;;;;;;;;;;5057768;28;20450;-75
2023/04/19 02:15:23;;;;;;;20.53;16.13;;;;;;;;;;5056787;28;20426;-75
2023/04/19 02:18:05;;;;;;;20.00;15.80;;;;;;;;;;5055689;28;20475;-76
2023/04/19 02:20:33;;;;;;;17.23;15.50;;;;;;;;;;5055540;28;20485;-76
2023/04/19 02:23:17;;;;;;;18.83;15.90;;;;;;;;;;5054733;28;20445;-75
2023/04/19 02:25:47;;;;;;;17.40;15.60;;;;;;;;;;5055710;28;20480;-76
2023/04/19 02:28:45;;;;;;;16.93;15.13;;;;;;;;;;5056393;28;20450;-75
2023/04/19 02:31:27;;;;;;;16.53;14.83;;;;;;;;;;5058036;28;20499;-75
2023/04/19 02:34:00;;;;;;;16.73;14.73;;;;;;;;;;5056965;28;20528;-75
2023/04/19 02:36:28;;;;;;;17.43;15.63;;;;;;;;;;5059261;28;20470;-75
2023/04/19 02:39:01;;;;;;;17.07;15.30;;;;;;;;;;5060870;28;20532;-75
2023/04/19 02:41:42;;;;;;;18.23;16.33;;;;;;;;;;5063502;28;20446;-75
2023/04/19 02:44:13;;;;;;;19.27;17.20;;;;;;;;;;5060193;28;20502;-76
2023/04/19 02:47:19;;;;;;;19.60;16.57;;;;;;;;;;5057946;28;20474;-75
2023/04/19 02:49:51;;;;;;;18.20;16.10;;;;;;;;;;5058755;28;20473;-76
2023/04/19 02:52:35;;;;;;;18.00;16.10;;;;;;;;;;5059570;28;20511;-76
2023/04/19 02:55:11;;;;;;;17.70;15.97;;;;;;;;;;5057318;28;20453;-77
2023/04/19 02:57:47;;;;;;;17.63;15.87;;;;;;;;;;5055337;28;20473;-75
2023/04/19 03:00:22;;;;;;;19.20;17.20;;;;;;;;;;5054974;28;20457;-76
2023/04/19 03:03:10;;;;;;;17.97;16.07;;;;;;;;;;5054625;28;20753;-75
2023/04/19 03:05:38;;;;;;;18.10;16.17;;;;;;;;;;5055398;28;20426;-75
2023/04/19 03:08:10;;;;;;;17.73;15.50;;;;;;;;;;5055121;28;20478;-76
2023/04/19 03:10:42;;;;;;;19.77;17.63;;;;;;;;;;5055596;28;20750;-75
2023/04/19 03:13:19;;;;;;;18.63;16.73;;;;;;;;;;5055473;28;20453;-76
2023/04/19 03:15:54;;;;;;;20.10;16.70;;;;;;;;;;5054530;28;20456;-77
2023/04/19 03:18:30;;;;;;;18.67;16.87;;;;;;;;;;5053938;28;20559;-75
2023/04/19 03:23:53;;;;;;;18.13;16.23;;;;;;;;;;5053430;28;20843;-76
2023/04/19 03:26:27;;;;;;;18.37;16.47;;;;;;;;;;5054345;28;20469;-76
2023/04/19 03:29:05;;;;;;;19.80;16.10;;;;;;;;;;5054834;28;20540;-76
2023/04/19 03:31:49;;;;;;;18.57;16.30;;;;;;;;;;5054538;28;20532;-76
2023/04/19 03:34:25;;;;;;;18.30;16.40;;;;;;;;;;5053855;28;21034;-76
2023/04/19 03:37:05;;;;;;;18.63;16.30;;;;;;;;;;5054228;28;20480;-76
2023/04/19 03:39:40;;;;;;;19.50;17.40;;;;;;;;;;5054982;28;20422;-76
2023/04/19 03:42:14;;;;;;;19.37;17.30;;;;;;;;;;5056314;28;20838;-75
2023/04/19 03:47:25;;;;;;;19.30;16.30;;;;;;;;;;5053133;28;20465;-75
2023/04/19 03:49:53;;;;;;;19.93;16.73;;;;;;;;;;5054439;28;20515;-76
2023/04/19 03:52:21;;;;;;;19.37;15.20;;;;;;;;;;5054625;28;20532;-77
2023/04/19 03:54:52;;;;;;;17.80;15.90;;;;;;;;;;5053877;28;21022;-76
2023/04/19 03:57:21;;;;;;;18.33;16.53;;;;;;;;;;5054431;28;20461;-76
2023/04/19 03:59:55;;;;;;;18.70;16.90;;;;;;;;;;5054108;28;20445;-75
2023/04/19 04:02:27;;;;;;;19.47;16.67;;;;;;;;;;5054367;28;20456;-76
2023/04/19 04:05:02;;;;;;;19.43;17.43;;;;;;;;;;5054015;28;20531;-76
2023/04/19 04:07:30;;;;;;;19.17;16.90;;;;;;;;;;5055126;28;20560;-75
2023/04/19 04:12:39;;;;;;;17.20;15.50;;;;;;;;;;5054937;28;20449;-75
2023/04/19 04:15:09;;;;;;;20.80;18.03;;;;;;;;;;5055598;28;20850;-76
2023/04/19 04:17:38;;;;;;;18.97;16.47;;;;;;;;;;5053820;28;20858;-76
2023/04/19 04:20:10;;;;;;;17.90;15.77;;;;;;;;;;5054601;28;20806;-77
2023/04/19 04:22:41;;;;;;;19.17;17.27;;;;;;;;;;5053787;28;20449;-76
2023/04/19 04:25:12;;;;;;;22.80;18.40;;;;;;;;;;5053293;28;20488;-76
2023/04/19 04:27:48;;;;;;;21.07;17.33;;;;;;;;;;5053034;28;20842;-75
2023/04/19 04:30:21;;;;;;;19.10;17.10;;;;;;;;;;5052081;28;20428;-76
2023/04/19 04:32:50;;;;;;;19.87;17.13;;;;;;;;;;5051993;28;20453;-76
2023/04/19 04:35:17;;;;;;;18.57;16.60;;;;;;;;;;5052121;28;20450;-76
2023/04/19 04:37:45;;;;;;;20.40;17.97;;;;;;;;;;5052785;28;20503;-76
2023/04/19 04:40:13;;;;;;;19.00;17.00;;;;;;;;;;5053031;28;20438;-76
2023/04/19 04:42:41;;;;;;;18.73;16.60;;;;;;;;;;5053189;28;20543;-79
2023/04/19 04:45:10;;;;;;;19.33;17.23;;;;;;;;;;5054141;28;20500;-77
2023/04/19 04:47:39;;;;;;;21.53;18.60;;;;;;;;;;5053852;28;20856;-77
2023/04/19 04:50:09;;;;;;;19.57;16.40;;;;;;;;;;5054127;28;20793;-76
2023/04/19 04:52:37;;;;;;;20.60;17.83;;;;;;;;;;5056004;28;20456;-77
2023/04/19 04:55:06;;;;;;;19.00;17.03;;;;;;;;;;5056031;28;20449;-77
2023/04/19 04:57:33;;;;;;;20.87;17.10;;;;;;;;;;5055087;28;20810;-76
2023/04/19 05:00:02;;;;;;;20.50;17.07;;;;;;;;;;5055527;28;21013;-77
2023/04/19 05:02:31;;;;;;;20.37;17.33;;;;;;;;;;5066893;28;20461;-77
2023/04/19 05:05:00;;;;;;;20.50;16.80;;;;;;;;;;5066511;28;20538;-76
2023/04/19 05:07:27;;;;;;;21.07;17.97;;;;;;;;;;5066253;28;21166;-77
2023/04/19 05:09:55;;;;;;;23.53;17.30;;;;;;;;;;5066218;28;20521;-77
2023/04/19 05:12:23;;;;;;;21.70;17.00;;;;;;;;;;5059557;28;20453;-78
2023/04/19 05:14:50;;;;;;;21.53;17.10;;;;;;;;;;5055849;28;20454;-77
2023/04/19 05:17:18;;;;;;;22.40;16.73;;;;;;;;;;5055174;28;20527;-77
2023/04/19 05:19:45;;;;;;;18.20;16.30;;;;;;;;;;5052501;28;20516;-78
2023/04/19 05:22:15;;;;;;;19.60;16.87;;;;;;;;;;5053223;28;20453;-78
2023/04/19 05:24:42;;;;;;;19.43;17.43;;;;;;;;;;5052658;28;20466;-77
2023/04/19 05:27:10;;;;;;;22.67;17.17;;;;;;;;;;5050375;28;20476;-76
2023/04/19 05:29:37;;;;;;;18.37;16.47;;;;;;;;;;5051499;28;20833;-78
2023/04/19 05:32:06;;;;;;;21.50;17.13;;;;;;;;;;5051787;28;20534;-78
2023/04/19 05:34:34;;;;;;;18.13;16.17;;;;;;;;;;5051303;28;20977;-77
2023/04/19 05:37:01;;;;;;;18.43;16.53;;;;;;;;;;5051353;28;20556;-78
2023/04/19 05:39:29;;;;;;;20.37;16.90;;;;;;;;;;5051747;28;20450;-76
2023/04/19 05:41:56;;;;;;;18.13;15.73;;;;;;;;;;5053444;28;20457;-78
2023/04/19 05:44:24;;;;;;;19.50;16.63;;;;;;;;;;5054947;28;20477;-78
2023/04/19 05:46:51;;;;;;;17.20;15.40;;;;;;;;;;5055323;28;20485;-79
2023/04/19 05:49:19;;;;;;;19.33;17.13;;;;;;;;;;5055244;28;20448;-76
2023/04/19 05:51:46;;;;;;;21.63;16.57;;;;;;;;;;5055349;28;20479;-78
2023/04/19 05:54:15;;;;;;;19.17;17.13;;;;;;;;;;5055249;28;20464;-77
2023/04/19 05:56:44;;;;;;;22.03;17.30;;;;;;;;;;5054253;28;20568;-76
2023/04/19 05:59:12;;;;;;;18.43;16.53;;;;;;;;;;5054140;28;20853;-77
2023/04/19 06:01:40;;;;;;;19.40;16.83;;;;;;;;;;5054923;28;20484;-75
2023/04/19 06:04:08;;;;;;;17.80;16.10;;;;;;;;;;5054231;28;20483;-77
2023/04/19 06:06:36;;;;;;;18.53;16.10;;;;;;;;;;5054647;28;21066;-76
2023/04/19 06:09:07;;;;;;;18.57;16.37;;;;;;;;;;5058085;28;20519;-75
2023/04/19 06:11:35;;;;;;;17.53;15.73;;;;;;;;;;5054874;28;20457;-76
2023/04/19 06:14:05;;;;;;;19.63;16.10;;;;;;;;;;5054760;28;21094;-77
2023/04/19 06:16:33;;;;;;;20.37;16.80;;;;;;;;;;5054912;28;20515;-76
2023/04/19 06:19:02;;;;;;;20.40;16.57;;;;;;;;;;5054914;28;20509;-76
2023/04/19 06:21:34;;;;;;;18.20;16.20;;;;;;;;;;5055105;28;20521;-77
2023/04/19 06:24:02;;;;;;;16.87;15.07;;;;;;;;;;5055341;28;20458;-77
2023/04/19 06:26:30;;;;;;;16.40;14.60;;;;;;;;;;5055626;28;20887;-78
2023/04/19 06:28:57;;;;;;;16.47;14.30;;;;;;;;;;5054660;28;20449;-77
2023/04/19 06:31:26;;;;;;;20.37;16.33;;;;;;;;;;5054039;28;20445;-76
2023/04/19 06:33:54;;;;;;;18.20;15.47;;;;;;;;;;5053581;28;20453;-75
2023/04/19 06:36:24;;;;;;;21.30;16.23;;;;;;;;;;5053509;28;20955;-76
2023/04/19 06:38:52;;;;;;;16.90;14.17;;;;;;;;;;5054441;28;21016;-76
2023/04/19 06:41:19;;;;;;;22.50;17.17;;;;;;;;;;5056005;28;20946;-75
2023/04/19 06:43:46;;;;;;;16.40;14.60;;;;;;;;;;5055466;28;20446;-78
2023/04/19 06:46:14;;;;;;;19.90;16.20;;;;;;;;;;5055260;28;20774;-79
2023/04/19 06:48:46;;;;;;;17.20;15.40;;;;;;;;;;5056812;28;20449;-77
2023/04/19 06:51:13;;;;;;;18.17;15.33;;;;;;;;;;5056244;28;20519;-78
2023/04/19 06:53:41;;;;;;;17.27;15.33;;;;;;;;;;5057457;28;20993;-77
2023/04/19 06:56:09;;;;;;;19.43;15.93;;;;;;;;;;5055880;28;20537;-77
2023/04/19 06:58:36;;;;;;;18.47;16.57;;;;;;;;;;5056647;28;20449;-77
2023/04/19 07:01:04;;;;;;;16.37;14.60;;;;;;;;;;5056574;28;20456;-77
2023/04/19 07:03:32;;;;;;;16.07;14.33;;;;;;;;;;5058383;28;20801;-77
2023/04/19 07:06:01;;;;;;;19.10;15.73;;;;;;;;;;5057182;28;20480;-77
2023/04/19 07:08:29;;;;;;;16.33;14.63;;;;;;;;;;5056137;28;20500;-76
2023/04/19 07:10:57;;;;;;;21.83;15.90;;;;;;;;;;5054477;28;20446;-76
2023/04/19 07:13:27;;;;;;;16.90;14.73;;;;;;;;;;5053645;28;20946;-77
2023/04/19 07:15:55;;;;;;;16.97;15.27;;;;;;;;;;5053826;28;20449;-75
2023/04/19 07:18:23;;;;;;;17.57;15.80;;;;;;;;;;5053495;28;20987;-76
2023/04/19 07:20:50;;;;;;;16.53;14.70;;;;;;;;;;5053617;28;20811;-76
2023/04/19 07:23:19;;;;;;;18.97;14.80;;;;;;;;;;5053194;28;20519;-78
2023/04/19 07:25:46;;;;;;;18.13;15.37;;;;;;;;;;5052592;28;20474;-77
2023/04/19 07:28:14;;;;;;;17.23;14.57;;;;;;;;;;5053108;28;20508;-76
2023/04/19 07:30:44;;;;;;;15.80;14.20;;;;;;;;;;5052545;28;20449;-77
2023/04/19 07:33:11;;;;;;;15.93;14.20;;;;;;;;;;5052464;28;20464;-76
2023/04/19 07:35:40;;;;;;;15.67;13.90;;;;;;;;;;5052747;28;20487;-77
2023/04/19 07:38:07;;;;;;;19.60;14.90;;;;;;;;;;5052878;28;20473;-76
2023/04/19 07:40:36;;;;;;;15.60;14.00;;;;;;;;;;5052248;28;20546;-76
2023/04/19 07:43:04;;;;;;;17.20;15.50;;;;;;;;;;5052603;28;20454;-76
2023/04/19 07:45:32;;;;;;;16.83;13.27;;;;;;;;;;5052757;28;20485;-78
2023/04/19 07:47:59;;;;;;;15.23;13.60;;;;;;;;;;5052650;28;20490;-76
2023/04/19 07:50:27;;;;;;;15.50;14.00;;;;;;;;;;5052675;28;20454;-77
2023/04/19 07:52:55;;;;;;;15.10;13.30;;;;;;;;;;5051887;28;20520;-77
2023/04/19 07:55:23;;;;;;;14.73;12.63;;;;;;;;;;5052099;28;20461;-77
2023/04/19 07:57:52;;;;;;;15.63;12.27;;;;;;;;;;5051857;28;20878;-76
2023/04/19 08:00:21;;;;;;;14.00;12.60;;;;;;;;;;5052096;28;20457;-77
2023/04/19 08:02:49;;;;;;;13.73;12.37;;;;;;;;;;5052110;28;20456;-75
2023/04/19 08:05:17;;;;;;;16.40;12.87;;;;;;;;;;5053343;28;20474;-76
2023/04/19 08:07:45;;;;;;;14.37;12.80;;;;;;;;;;5054288;28;20557;-77
2023/04/19 08:10:13;;;;;;;14.00;12.60;;;;;;;;;;5054009;28;20561;-75
2023/04/19 08:12:41;;;;;;;13.73;12.40;;;;;;;;;;5053775;28;20499;-79
2023/04/19 08:15:10;;;;;;;14.27;12.87;;;;;;;;;;5053414;28;20449;-77
2023/04/19 08:17:38;;;;;;;13.40;12.00;;;;;;;;;;5052675;28;20866;-76
2023/04/19 08:20:06;;;;;;;14.40;11.83;;;;;;;;;;5053125;28;20963;-77
2023/04/19 08:22:34;;;;;;;12.00;10.60;;;;;;;;;;5054045;28;20497;-78
2023/04/19 08:25:02;;;;;;;13.30;11.90;;;;;;;;;;5052791;28;20484;-76
2023/04/19 08:27:29;;;;;;;11.57;10.37;;;;;;;;;;5053792;28;20477;-77
2023/04/19 08:29:57;;;;;;;12.40;11.10;;;;;;;;;;5054003;28;20945;-75
2023/04/19 08:32:25;;;;;;;10.50;9.50;;;;;;;;;;5053100;28;20525;-77
2023/04/19 08:34:59;;;;;;;11.07;9.50;;;;;;;;;;5053847;28;20441;-75
2023/04/19 08:37:38;;;;;;;10.00;9.10;;;;;;;;;;5053746;28;20545;-76
2023/04/19 08:40:06;;;;;;;11.00;9.90;;;;;;;;;;5055479;28;20473;-76
2023/04/19 08:42:33;;;;;;;12.50;11.20;;;;;;;;;;5054342;28;20457;-76
2023/04/19 08:45:04;;;;;;;11.33;10.23;;;;;;;;;;5054240;28;20450;-78
2023/04/19 08:47:34;;;;;;;13.43;10.63;;;;;;;;;;5053433;28;20835;-76
2023/04/19 08:50:01;;;;;;;11.47;10.37;;;;;;;;;;5056829;28;20465;-77
2023/04/19 08:52:29;;;;;;;13.20;10.63;;;;;;;;;;5060545;28;20454;-77
2023/04/19 08:54:56;;;;;;;11.40;10.20;;;;;;;;;;5058943;28;20504;-75
2023/04/19 08:57:24;;;;;;;11.40;10.30;;;;;;;;;;5056086;28;20846;-78
2023/04/19 08:59:54;;;;;;;14.33;11.17;;;;;;;;;;5057157;28;20456;-78
2023/04/19 09:02:22;;;;;;;11.50;10.40;;;;;;;;;;5055018;28;20922;-77
2023/04/19 09:04:51;;;;;;;11.00;10.00;;;;;;;;;;5055058;28;20499;-76
2023/04/19 09:07:25;;;;;;;11.60;10.50;;;;;;;;;;5055119;28;20477;-77
2023/04/19 09:10:06;;;;;;;11.77;10.63;;;;;;;;;;5056672;28;20469;-76
2023/04/19 09:12:34;;;;;;;12.53;11.23;;;;;;;;;;5056738;28;20511;-76
2023/04/19 09:15:03;;;;;;;11.70;10.70;;;;;;;;;;5057985;28;20819;-77
2023/04/19 09:17:30;;;;;;;11.80;10.70;;;;;;;;;;5060682;28;20556;-76
2023/04/19 09:19:59;;;;;;;11.97;10.80;;;;;;;;;;5066746;28;20504;-77
2023/04/19 09:22:26;;;;;;;11.90;10.80;;;;;;;;;;5066731;28;20920;-78
2023/04/19 09:24:54;;;;;;;13.40;12.17;;;;;;;;;;5066872;28;20452;-77
2023/04/19 09:27:26;;;;;;;12.57;11.30;;;;;;;;;;5066374;28;20488;-78
2023/04/19 09:29:55;;;;;;;13.33;11.13;;;;;;;;;;5065623;28;20527;-77
2023/04/19 09:32:23;;;;;;;12.57;11.27;;;;;;;;;;5063775;28;20461;-77
2023/04/19 09:34:57;;;;;;;14.10;11.60;;;;;;;;;;5065057;28;20450;-78
2023/04/19 09:37:29;;;;;;;12.97;11.70;;;;;;;;;;5064985;28;20452;-76
2023/04/19 09:39:57;;;;;;;12.53;11.33;;;;;;;;;;5065018;28;20476;-77
2023/04/19 09:42:24;;;;;;;12.80;11.50;;;;;;;;;;5062918;28;20449;-77
2023/04/19 09:44:58;;;;;;;12.33;11.20;;;;;;;;;;5063236;28;20464;-77
2023/04/19 09:47:25;;;;;;;13.27;11.97;;;;;;;;;;5059208;28;20568;-77
2023/04/19 09:50:09;;;;;;;12.83;11.60;;;;;;;;;;5058278;28;20468;-78
2023/04/19 09:52:38;;;;;;;12.17;11.00;;;;;;;;;;5057421;28;20461;-76
2023/04/19 09:55:07;;;;;;;11.03;9.90;;;;;;;;;;5056971;28;20487;-79
2023/04/19 09:57:35;;;;;;;11.57;10.57;;;;;;;;;;5057003;28;20904;-77
2023/04/19 10:00:07;;;;;;;10.83;9.83;;;;;;;;;;5056775;28;20449;-77
2023/04/19 10:02:38;;;;;;;12.50;11.30;;;;;;;;;;5056496;28;20445;-78
2023/04/19 10:05:07;;;;;;;12.43;11.23;;;;;;;;;;5056303;28;20464;-77
2023/04/19 10:07:36;;;;;;;12.27;11.17;;;;;;;;;;5056942;28;20485;-77
2023/04/19 10:10:06;;;;;;;11.27;10.20;;;;;;;;;;5058234;28;20477;-77
2023/04/19 10:12:37;;;;;;;11.23;10.13;;;;;;;;;;5058068;28;20445;-77
2023/04/19 10:15:07;;;;;;;12.17;10.90;;;;;;;;;;5057397;28;20476;-77
2023/04/19 10:17:38;;;;;;;11.67;10.57;;;;;;;;;;5058387;28;20462;-77
2023/04/19 10:20:07;;;;;;;11.80;10.70;;;;;;;;;;5058432;28;20457;-77
2023/04/19 10:22:40;;;;;;;12.73;11.00;;;;;;;;;;5057458;28;20437;-77
2023/04/19 10:25:18;;;;;;;13.63;11.00;;;;;;;;;;5058090;28;20442;-78
2023/04/19 10:27:50;;;;;;;12.10;10.90;;;;;;;;;;5057073;28;20529;-77
2023/04/19 10:30:19;;;;;;;11.60;10.60;;;;;;;;;;5056765;28;20442;-77
2023/04/19 10:32:48;;;;;;;12.73;10.47;;;;;;;;;;5059762;28;20555;-78
2023/04/19 10:35:19;;;;;;;11.73;10.53;;;;;;;;;;5059633;28;20499;-76
2023/04/19 10:38:08;;;;;;;12.17;10.97;;;;;;;;;;5060040;28;20760;-78
2023/04/19 10:43:41;;;;;;;11.90;9.77;;;;;;;;;;5060274;28;20488;-77
2023/04/19 10:46:10;;;;;;;10.87;9.77;;;;;;;;;;5061312;28;20481;-77
2023/04/19 10:48:40;;;;;;;10.70;9.70;;;;;;;;;;5060415;28;20450;-78
2023/04/19 10:51:18;;;;;;;12.07;10.60;;;;;;;;;;5060036;28;20442;-77
2023/04/19 10:53:56;;;;;;;12.53;11.23;;;;;;;;;;5060670;28;20556;-78
2023/04/19 10:56:40;;;;;;;11.77;10.57;;;;;;;;;;5061219;28;20430;-77
2023/04/19 10:59:23;;;;;;;12.77;11.50;;;;;;;;;;5060485;28;20445;-79
2023/04/19 11:02:01;;;;;;;10.13;9.23;;;;;;;;;;5060142;28;20436;-78
2023/04/19 11:04:47;;;;;;;11.30;10.30;;;;;;;;;;5059967;28;20438;-77
2023/04/19 11:07:22;;;;;;;12.30;11.23;;;;;;;;;;5061283;28;20481;-77
2023/04/19 11:09:51;;;;;;;11.93;10.73;;;;;;;;;;5060520;28;20587;-77
2023/04/19 11:12:19;;;;;;;12.50;11.30;;;;;;;;;;5059834;28;20501;-77
2023/04/19 11:14:50;;;;;;;9.93;8.93;;;;;;;;;;5058620;28;20456;-78
2023/04/19 11:17:24;;;;;;;11.63;10.63;;;;;;;;;;5058266;28;20596;-78
2023/04/19 11:19:57;;;;;;;12.10;11.00;;;;;;;;;;5057710;28;20454;-77
2023/04/19 11:22:32;;;;;;;11.30;10.20;;;;;;;;;;5058605;28;20488;-79
2023/04/19 11:25:10;;;;;;;12.00;10.37;;;;;;;;;;5057537;28;20524;-78
2023/04/19 11:27:40;;;;;;;11.30;10.20;;;;;;;;;;5056528;28;20576;-78
2023/04/19 11:30:10;;;;;;;12.53;11.43;;;;;;;;;;5055970;28;20449;-76
2023/04/19 11:32:39;;;;;;;12.73;11.53;;;;;;;;;;5056725;28;20464;-76
2023/04/19 11:35:08;;;;;;;12.23;10.97;;;;;;;;;;5058093;28;20456;-77
2023/04/19 11:37:36;;;;;;;12.10;10.90;;;;;;;;;;5056658;28;20580;-79
2023/04/19 11:40:08;;;;;;;13.30;12.10;;;;;;;;;;5055940;28;20509;-76
2023/04/19 11:42:38;;;;;;;15.50;14.00;;;;;;;;;;5055562;28;20835;-79
2023/04/19 11:45:11;;;;;;;14.70;12.90;;;;;;;;;;5056062;28;21025;-76
2023/04/19 11:47:48;;;;;;;15.60;13.30;;;;;;;;;;5056616;28;20509;-79
2023/04/19 11:50:33;;;;;;;14.40;13.00;;;;;;;;;;5056472;28;20453;-77
2023/04/19 11:53:01;;;;;;;15.50;13.90;;;;;;;;;;5056339;28;20453;-79
2023/04/19 11:55:33;;;;;;;15.50;13.00;;;;;;;;;;5056291;28;20450;-77
2023/04/19 11:58:01;;;;;;;16.37;14.77;;;;;;;;;;5055213;28;20893;-76
2023/04/19 12:00:31;;;;;;;16.23;14.63;;;;;;;;;;5054778;28;20473;-76
2023/04/19 12:03:00;;;;;;;16.57;14.97;;;;;;;;;;5055307;28;20433;-76
2023/04/19 12:05:28;;;;;;;17.33;15.60;;;;;;;;;;5055834;28;20528;-76
2023/04/19 12:08:02;;;;;;;18.27;16.37;;;;;;;;;;5055980;28;20478;-79
2023/04/19 12:10:31;;;;;;;17.97;16.13;;;;;;;;;;5056344;28;20469;-76
2023/04/19 12:12:58;;;;;;;19.37;17.40;;;;;;;;;;5055497;28;20495;-78
2023/04/19 12:15:41;;;;;;;18.50;16.70;;;;;;;;;;5055049;28;20460;-78
2023/04/19 12:18:11;;;;;;;18.53;16.73;;;;;;;;;;5052879;28;20468;-76
2023/04/19 12:20:39;;;;;;;18.20;16.40;;;;;;;;;;5052636;28;20449;-77
2023/04/19 12:23:10;;;;;;;19.67;17.70;;;;;;;;;;5052983;28;20457;-76
2023/04/19 12:25:40;;;;;;;19.70;17.60;;;;;;;;;;5052650;28;20493;-77
2023/04/19 12:28:10;;;;;;;22.90;19.30;;;;;;;;;;5052985;28;20516;-75
2023/04/19 12:30:40;;;;;;;20.73;18.53;;;;;;;;;;5052637;28;20464;-77
2023/04/19 12:33:12;;;;;;;20.07;17.90;;;;;;;;;;5055864;28;20446;-76
2023/04/19 12:35:41;;;;;;;19.20;17.23;;;;;;;;;;5054385;28;20477;-77
2023/04/19 12:38:10;;;;;;;21.67;18.60;;;;;;;;;;5057274;28;20500;-78
2023/04/19 12:40:43;;;;;;;22.23;18.90;;;;;;;;;;5058426;28;20455;-76
2023/04/19 12:43:12;;;;;;;22.03;19.60;;;;;;;;;;5059739;28;20462;-76
2023/04/19 12:45:47;;;;;;;22.73;19.80;;;;;;;;;;5059052;28;20787;-79
2023/04/19 12:48:18;;;;;;;28.40;19.90;;;;;;;;;;5057068;28;20476;-76
2023/04/19 12:50:55;;;;;;;20.87;18.27;;;;;;;;;;5055498;28;20453;-78
2023/04/19 12:53:25;;;;;;;20.73;18.53;;;;;;;;;;5053631;28;20532;-76
2023/04/19 12:55:53;;;;;;;23.50;18.83;;;;;;;;;;5052230;28;20457;-77
2023/04/19 12:58:21;;;;;;;23.10;19.10;;;;;;;;;;5051342;28;20548;-78
2023/04/19 13:00:49;;;;;;;21.33;17.87;;;;;;;;;;5052378;28;20438;-77
2023/04/19 13:03:20;;;;;;;20.57;18.43;;;;;;;;;;5052859;28;20445;-78
2023/04/19 13:05:50;;;;;;;20.10;17.97;;;;;;;;;;5052840;28;20448;-78
2023/04/19 13:08:20;;;;;;;20.30;18.17;;;;;;;;;;5053967;28;20481;-77
2023/04/19 13:10:48;;;;;;;20.67;18.53;;;;;;;;;;5053636;28;21010;-76
2023/04/19 13:13:22;;;;;;;18.17;15.80;;;;;;;;;;5052437;28;20449;-79
2023/04/19 13:15:50;;;;;;;18.77;16.77;;;;;;;;;;5053635;28;20434;-76
2023/04/19 13:18:18;;;;;;;18.33;15.27;;;;;;;;;;5051996;28;20469;-80
2023/04/19 13:20:46;;;;;;;19.10;15.90;;;;;;;;;;5051581;28;20437;-76
2023/04/19 13:23:16;;;;;;;16.77;14.93;;;;;;;;;;5052021;28;20440;-77
2023/04/19 13:25:45;;;;;;;18.47;16.23;;;;;;;;;;5051695;28;20499;-75
2023/04/19 13:28:13;;;;;;;20.20;15.47;;;;;;;;;;5051625;28;20485;-78
2023/04/19 13:30:40;;;;;;;17.50;14.80;;;;;;;;;;5051913;28;21034;-78
2023/04/19 13:33:15;;;;;;;16.37;14.63;;;;;;;;;;5051152;28;20441;-78
2023/04/19 13:35:43;;;;;;;18.60;16.43;;;;;;;;;;5051735;28;20483;-78
2023/04/19 13:38:15;;;;;;;16.77;15.10;;;;;;;;;;5051857;28;20547;-77
2023/04/19 13:40:45;;;;;;;17.43;15.67;;;;;;;;;;5052150;28;20422;-77
2023/04/19 13:43:14;;;;;;;15.53;13.53;;;;;;;;;;5051667;28;20603;-78
2023/04/19 13:45:45;;;;;;;14.90;13.50;;;;;;;;;;5052493;28;20970;-76
2023/04/19 13:48:16;;;;;;;15.80;14.27;;;;;;;;;;5051804;28;20903;-78
2023/04/19 13:50:44;;;;;;;16.37;14.77;;;;;;;;;;5053105;28;20458;-78
2023/04/19 13:53:12;;;;;;;15.13;13.70;;;;;;;;;;5054323;28;20446;-78
2023/04/19 13:55:42;;;;;;;16.20;14.50;;;;;;;;;;5053499;28;20435;-77
2023/04/19 13:58:16;;;;;;;15.77;14.17;;;;;;;;;;5052435;28;20473;-78
2023/04/19 14:00:44;;;;;;;15.77;14.27;;;;;;;;;;5052430;28;20457;-78
2023/04/19 14:03:18;;;;;;;18.07;14.70;;;;;;;;;;5056600;28;20476;-78
2023/04/19 14:05:46;;;;;;;14.90;13.40;;;;;;;;;;5056857;28;20440;-77
2023/04/19 14:08:20;;;;;;;19.20;13.83;;;;;;;;;;5057264;28;20481;-79
2023/04/19 14:10:48;;;;;;;16.70;15.00;;;;;;;;;;5057067;28;20479;-77
2023/04/19 14:13:20;;;;;;;16.00;13.93;;;;;;;;;;5058572;28;20515;-77
2023/04/19 14:16:02;;;;;;;14.47;12.80;;;;;;;;;;5057448;28;20446;-76
2023/04/19 14:18:31;;;;;;;25.03;22.43;;;;;;;;;;5057576;28;20523;-77
2023/04/19 14:21:04;;;;;;;14.43;12.70;;;;;;;;;;5058010;28;20446;-77
2023/04/19 14:23:36;;;;;;;14.10;12.80;;;;;;;;;;5057723;28;20537;-76
2023/04/19 14:26:06;;;;;;;14.17;12.87;;;;;;;;;;5056175;28;20507;-77
2023/04/19 14:28:41;;;;;;;14.00;12.57;;;;;;;;;;5055493;28;20565;-79
2023/04/19 14:31:12;;;;;;;12.87;11.77;;;;;;;;;;5055276;28;20463;-78
2023/04/19 14:33:40;;;;;;;13.53;12.33;;;;;;;;;;5054907;28;20450;-78
2023/04/19 14:36:09;;;;;;;14.07;12.77;;;;;;;;;;5055378;28;20501;-79
2023/04/19 14:38:38;;;;;;;12.93;11.70;;;;;;;;;;5054990;28;20477;-79
2023/04/19 14:41:06;;;;;;;12.40;11.30;;;;;;;;;;5055062;28;20449;-80
2023/04/19 14:43:37;;;;;;;12.57;11.53;;;;;;;;;;5055500;28;20495;-78
2023/04/19 14:46:13;;;;;;;12.07;11.00;;;;;;;;;;5056878;28;20485;-77
2023/04/19 14:48:41;;;;;;;13.30;12.00;;;;;;;;;;5057884;28;20497;-77
2023/04/19 14:51:10;;;;;;;14.07;12.47;;;;;;;;;;5059326;28;20457;-78
2023/04/19 14:53:40;;;;;;;14.03;12.67;;;;;;;;;;5061112;28;20450;-78
2023/04/19 14:56:19;;;;;;;12.03;10.97;;;;;;;;;;5057947;28;20464;-77
2023/04/19 14:58:50;;;;;;;15.40;11.47;;;;;;;;;;5056567;28;20503;-76